| time (UTC) | temp F | wind direction | speed knots | gust knots | rain 1hr in | rain 24hr in | rain mn in | humidity % | barometer mb |
| 20260503200151 | 62 | 201 | 0.9 | 8.7 | 0.00 | 0.00 | 0.00 | 49 | 1014.7 |
| 20260503195646 | 61 | 200 | 4.3 | 9.6 | 0.00 | 0.00 | 0.00 | 47 | 1014.7 |
| 20260503195142 | 61 | 200 | 4.3 | 9.6 | 0.00 | 0.00 | 0.00 | 47 | 1014.8 |
| 20260503194636 | 61 | 195 | 2.6 | 12.2 | 0.00 | 0.00 | 0.00 | 48 | 1014.9 |
| 20260503194153 | 61 | 176 | 5.2 | 11.3 | 0.00 | 0.00 | 0.00 | 47 | 1015.3 |
| 20260503193649 | 61 | 201 | 2.6 | 14.8 | 0.00 | 0.00 | 0.00 | 47 | 1015.4 |
| 20260503193144 | 62 | 202 | 6.1 | 14.8 | 0.00 | 0.00 | 0.00 | 48 | 1015.3 |
| 20260503192638 | 62 | 360 | 3.5 | 12.2 | 0.00 | 0.00 | 0.00 | 48 | 1014.8 |
| 20260503192134 | 62 | 194 | 4.3 | 13.9 | 0.00 | 0.00 | 0.00 | 46 | 1015.0 |
| 20260503191630 | 62 | 196 | 7.8 | 13.0 | 0.00 | 0.00 | 0.00 | 47 | 1015.1 |
| 20260503191146 | 62 | 192 | 8.7 | 18.2 | 0.00 | 0.00 | 0.00 | 46 | 1015.0 |
| 20260503190642 | 62 | 192 | 8.7 | 18.2 | 0.00 | 0.00 | 0.00 | 47 | 1015.1 |
| 20260503190136 | 62 | 202 | 4.3 | 12.2 | 0.00 | 0.00 | 0.00 | 48 | 1015.2 |
| 20260503185648 | 62 | 200 | 5.2 | 12.2 | 0.00 | 0.00 | 0.00 | 48 | 1015.4 |
| 20260503185141 | 61 | 194 | 4.3 | 13.0 | 0.00 | 0.00 | 0.00 | 48 | 1015.2 |
| 20260503184636 | 62 | 190 | 4.3 | 11.3 | 0.00 | 0.00 | 0.00 | 47 | 1015.4 |
| 20260503184130 | 61 | 192 | 4.3 | 11.3 | 0.00 | 0.00 | 0.00 | 48 | 1015.7 |
| 20260503183645 | 61 | 199 | 1.7 | 9.6 | 0.00 | 0.00 | 0.00 | 48 | 1015.7 |
| 20260503183140 | 61 | 196 | 2.6 | 10.4 | 0.00 | 0.00 | 0.00 | 49 | 1016.0 |
| 20260503182635 | 60 | 192 | 5.2 | 10.4 | 0.00 | 0.00 | 0.00 | 48 | 1016.1 |
| 20260503182149 | 60 | 190 | 4.3 | 10.4 | 0.00 | 0.00 | 0.00 | 47 | 1016.2 |
| 20260503181643 | 60 | 198 | 2.6 | 10.4 | 0.00 | 0.00 | 0.00 | 48 | 1016.2 |
| 20260503181138 | 60 | 197 | 1.7 | 9.6 | 0.00 | 0.00 | 0.00 | 48 | 1016.4 |
| 20260503180634 | 60 | 194 | 2.6 | 9.6 | 0.00 | 0.00 | 0.00 | 47 | 1016.6 |
| 20260503180152 | 60 | 200 | 3.5 | 12.2 | 0.00 | 0.00 | 0.00 | 47 | 1016.7 |
| 20260503175643 | 60 | 201 | 4.3 | 12.2 | 0.00 | 0.00 | 0.00 | 46 | 1016.6 |
| 20260503175139 | 60 | 196 | 7.0 | 11.3 | 0.00 | 0.00 | 0.00 | 46 | 1016.8 |
| 20260503174633 | 60 | 191 | 3.5 | 9.6 | 0.00 | 0.00 | 0.00 | 46 | 1016.9 |
| 20260503174146 | 60 | 196 | 4.3 | 11.3 | 0.00 | 0.00 | 0.00 | 46 | 1017.0 |
| 20260503173641 | 60 | 194 | 3.5 | 11.3 | 0.00 | 0.00 | 0.00 | 44 | 1017.3 |
| 20260503173137 | 60 | 212 | 3.5 | 11.3 | 0.00 | 0.00 | 0.00 | 45 | 1017.3 |
| 20260503172633 | 59 | 201 | 3.5 | 11.3 | 0.00 | 0.00 | 0.00 | 45 | 1017.4 |
| 20260503172130 | 59 | 194 | 7.0 | 11.3 | 0.00 | 0.00 | 0.00 | 45 | 1017.3 |
| 20260503171646 | 59 | 192 | 2.6 | 10.4 | 0.00 | 0.00 | 0.00 | 45 | 1017.4 |
| 20260503171140 | 59 | 189 | 4.3 | 10.4 | 0.00 | 0.00 | 0.00 | 43 | 1017.5 |
| 20260503170636 | 60 | 200 | 4.3 | 14.8 | 0.00 | 0.00 | 0.00 | 44 | 1017.4 |
| 20260503170130 | 60 | 190 | 5.2 | 14.8 | 0.00 | 0.00 | 0.00 | 44 | 1017.3 |
| 20260503160143 | 57 | 203 | 3.5 | 13.0 | 0.00 | 0.00 | 0.00 | 47 | 1018.4 |
| 20260503150636 | 55 | 194 | 2.6 | 9.6 | 0.00 | 0.00 | 0.00 | 53 | 1018.9 |
| 20260503150152 | 55 | 200 | 4.3 | 9.6 | 0.00 | 0.00 | 0.00 | 53 | 1018.7 |
| 20260503140144 | 51 | 192 | 5.2 | 11.3 | 0.00 | 0.00 | 0.00 | 58 | 1019.2 |
| 20260503131129 | 48 | 198 | 3.5 | 8.7 | 0.00 | 0.00 | 0.00 | 63 | 1019.2 |
| 20260503130645 | 47 | 194 | 3.5 | 8.7 | 0.00 | 0.00 | 0.00 | 64 | 1019.3 |
| 20260503130139 | 47 | 194 | 2.6 | 7.8 | 0.00 | 0.00 | 0.00 | 65 | 1019.3 |
| 20260503120131 | 42 | 185 | 1.7 | 5.2 | 0.00 | 0.00 | 0.00 | 76 | 1019.0 |
| 20260503110639 | 40 | 174 | 0.9 | 2.6 | 0.00 | 0.00 | 0.00 | 79 | 1018.7 |
| 20260503110133 | 39 | 173 | 0.0 | 1.7 | 0.00 | 0.00 | 0.00 | 79 | 1018.8 |
| 20260503100209 | 39 | 71 | 0.0 | 1.7 | 0.00 | 0.00 | 0.00 | 79 | 1018.4 |
| 20260503090132 | 38 | 62 | 0.0 | 0.0 | 0.00 | 0.00 | 0.00 | 80 | 1018.3 |
| 20260503081633 | 39 | 62 | 0.0 | 0.0 | 0.00 | 0.00 | 0.00 | 81 | 1018.3 |
| 20260503081208 | 39 | 62 | 0.0 | 0.0 | 0.00 | 0.00 | 0.00 | 81 | 1018.3 |
| 20260503080643 | 39 | 62 | 0.0 | 0.0 | 0.00 | 0.00 | 0.00 | 81 | 1018.4 |
| 20260503080158 | 39 | 62 | 0.0 | 0.0 | 0.00 | 0.00 | 0.00 | 81 | 1018.4 |
| 20260503072629 | 39 | 62 | 0.0 | 0.0 | 0.00 | 0.00 | 0.00 | 80 | 1018.3 |
| 20260503072145 | 39 | 62 | 0.0 | 0.0 | 0.00 | 0.00 | 0.00 | 80 | 1018.4 |
| 20260503071642 | 39 | 62 | 0.0 | 0.0 | 0.00 | 0.00 | 0.00 | 80 | 1018.4 |
| 20260503071137 | 39 | 62 | 0.0 | 0.0 | 0.00 | 0.00 | 0.00 | 80 | 1018.3 |
| 20260503070630 | 39 | 62 | 0.0 | 0.0 | 0.00 | 0.00 | 0.00 | 80 | 1018.4 |
| 20260503070204 | 39 | 62 | 0.0 | 0.0 | 0.00 | 0.00 | 0.00 | 80 | 1018.4 |
| 20260503060206 | 39 | 62 | 0.0 | 0.0 | 0.00 | 0.00 | 0.00 | 80 | 1018.8 |
| 20260503054650 | 40 | 62 | 0.0 | 0.0 | 0.00 | 0.00 | 0.00 | 79 | 1018.8 |
| 20260503054144 | 40 | 62 | 0.0 | 0.0 | 0.00 | 0.00 | 0.00 | 79 | 1018.9 |
| 20260503053658 | 40 | 62 | 0.0 | 0.0 | 0.00 | 0.00 | 0.00 | 79 | 1018.9 |
| 20260503053131 | 40 | 62 | 0.0 | 0.0 | 0.00 | 0.00 | 0.00 | 79 | 1018.9 |
| 20260503052645 | 40 | 62 | 0.0 | 0.0 | 0.00 | 0.00 | 0.00 | 78 | 1018.9 |
| 20260503052139 | 40 | 62 | 0.0 | 0.0 | 0.00 | 0.00 | 0.00 | 78 | 1018.9 |
| 20260503051633 | 40 | 62 | 0.0 | 0.0 | 0.00 | 0.00 | 0.00 | 77 | 1018.9 |
| 20260503051209 | 40 | 62 | 0.0 | 0.0 | 0.00 | 0.00 | 0.00 | 77 | 1018.9 |
| 20260503050644 | 40 | 62 | 0.0 | 0.0 | 0.00 | 0.00 | 0.00 | 77 | 1019.0 |
| 20260503050140 | 40 | 62 | 0.0 | 0.0 | 0.00 | 0.00 | 0.00 | 77 | 1019.0 |
| 20260503045638 | 40 | 62 | 0.0 | 0.0 | 0.00 | 0.00 | 0.00 | 76 | 1019.0 |
| 20260503045132 | 40 | 62 | 0.0 | 0.0 | 0.00 | 0.00 | 0.00 | 76 | 1019.0 |
| 20260503044707 | 40 | 62 | 0.0 | 0.0 | 0.00 | 0.00 | 0.00 | 75 | 1019.0 |
| 20260503044138 | 40 | 62 | 0.0 | 0.0 | 0.00 | 0.00 | 0.00 | 75 | 1019.0 |
| 20260503043634 | 40 | 62 | 0.0 | 0.0 | 0.00 | 0.00 | 0.00 | 75 | 1019.0 |
| 20260503043130 | 41 | 62 | 0.0 | 0.0 | 0.00 | 0.00 | 0.00 | 75 | 1018.9 |
| 20260503042646 | 41 | 62 | 0.0 | 0.0 | 0.00 | 0.00 | 0.00 | 75 | 1018.9 |
| 20260503042142 | 41 | 62 | 0.0 | 0.0 | 0.00 | 0.00 | 0.00 | 74 | 1018.9 |
| 20260503041629 | 41 | 62 | 0.0 | 0.0 | 0.00 | 0.00 | 0.00 | 74 | 1018.8 |
| 20260503041142 | 41 | 62 | 0.0 | 0.0 | 0.00 | 0.00 | 0.00 | 73 | 1018.8 |
| 20260503040637 | 41 | 62 | 0.0 | 0.0 | 0.00 | 0.00 | 0.00 | 73 | 1018.8 |
| 20260503040132 | 42 | 62 | 0.0 | 0.0 | 0.00 | 0.00 | 0.00 | 72 | 1018.8 |
| 20260503035656 | 42 | 62 | 0.0 | 0.0 | 0.00 | 0.00 | 0.00 | 72 | 1018.8 |
| 20260503035133 | 42 | 62 | 0.0 | 0.0 | 0.00 | 0.00 | 0.00 | 71 | 1018.8 |
| 20260503034648 | 42 | 62 | 0.0 | 0.0 | 0.00 | 0.00 | 0.00 | 71 | 1018.9 |
| 20260503034142 | 42 | 62 | 0.0 | 0.0 | 0.00 | 0.00 | 0.00 | 71 | 1018.9 |
| 20260503033637 | 42 | 62 | 0.0 | 0.0 | 0.00 | 0.00 | 0.00 | 70 | 1018.9 |
| 20260503033133 | 42 | 62 | 0.0 | 0.0 | 0.00 | 0.00 | 0.00 | 70 | 1019.0 |
| 20260503032630 | 42 | 62 | 0.0 | 0.0 | 0.00 | 0.00 | 0.00 | 69 | 1019.0 |
| 20260503032147 | 43 | 62 | 0.0 | 0.0 | 0.00 | 0.00 | 0.00 | 69 | 1019.0 |
| 20260503031644 | 43 | 62 | 0.0 | 0.0 | 0.00 | 0.00 | 0.00 | 68 | 1018.9 |
| 20260503031139 | 43 | 62 | 0.0 | 0.0 | 0.00 | 0.00 | 0.00 | 67 | 1019.0 |
| 20260503030633 | 43 | 62 | 0.0 | 0.0 | 0.00 | 0.00 | 0.00 | 67 | 1019.0 |
| 20260503030129 | 43 | 62 | 0.0 | 0.0 | 0.00 | 0.00 | 0.00 | 66 | 1019.1 |
| 20260503025645 | 43 | 62 | 0.0 | 0.0 | 0.00 | 0.00 | 0.00 | 65 | 1019.0 |
| 20260503025141 | 44 | 62 | 0.0 | 0.0 | 0.00 | 0.00 | 0.00 | 65 | 1019.1 |
| 20260503024700 | 44 | 62 | 0.0 | 0.0 | 0.00 | 0.00 | 0.00 | 64 | 1019.0 |
| 20260503024137 | 44 | 62 | 0.0 | 0.0 | 0.00 | 0.00 | 0.00 | 64 | 1019.0 |
| 20260503023651 | 44 | 62 | 0.0 | 0.0 | 0.00 | 0.00 | 0.00 | 64 | 1018.9 |
| 20260503023145 | 45 | 62 | 0.0 | 0.0 | 0.00 | 0.00 | 0.00 | 63 | 1018.8 |
| 20260503022640 | 45 | 62 | 0.0 | 0.0 | 0.00 | 0.00 | 0.00 | 62 | 1018.9 |
| 20260503022136 | 45 | 62 | 0.0 | 0.0 | 0.00 | 0.00 | 0.00 | 62 | 1018.8 |
| 20260503021650 | 45 | 62 | 0.0 | 0.0 | 0.00 | 0.00 | 0.00 | 60 | 1018.7 |
| 20260503021206 | 45 | 62 | 0.0 | 0.0 | 0.00 | 0.00 | 0.00 | 59 | 1018.7 |
| 20260503020642 | 46 | 62 | 0.0 | 0.0 | 0.00 | 0.00 | 0.00 | 58 | 1018.7 |
| 20260503020136 | 46 | 62 | 0.0 | 0.0 | 0.00 | 0.00 | 0.00 | 57 | 1018.6 |
| 20260503015631 | 46 | 62 | 0.0 | 0.0 | 0.00 | 0.00 | 0.00 | 56 | 1018.5 |
| 20260503015147 | 47 | 62 | 0.0 | 0.0 | 0.00 | 0.00 | 0.00 | 55 | 1018.5 |
| 20260503014643 | 47 | 62 | 0.0 | 0.0 | 0.00 | 0.00 | 0.00 | 54 | 1018.5 |
| 20260503014138 | 47 | 62 | 0.0 | 0.0 | 0.00 | 0.00 | 0.00 | 53 | 1018.4 |
| 20260503013635 | 48 | 62 | 0.0 | 0.0 | 0.00 | 0.00 | 0.00 | 51 | 1018.3 |
| 20260503013131 | 48 | 62 | 0.0 | 0.0 | 0.00 | 0.00 | 0.00 | 51 | 1018.3 |
| 20260503012646 | 48 | 62 | 0.0 | 0.0 | 0.00 | 0.00 | 0.00 | 49 | 1018.3 |
| 20260503012202 | 48 | 62 | 0.0 | 0.0 | 0.00 | 0.00 | 0.00 | 49 | 1018.3 |
| 20260503011637 | 48 | 62 | 0.0 | 0.0 | 0.00 | 0.00 | 0.00 | 48 | 1018.3 |
| 20260503011132 | 49 | 62 | 0.0 | 0.0 | 0.00 | 0.00 | 0.00 | 47 | 1018.2 |
| 20260503010644 | 49 | 62 | 0.0 | 0.0 | 0.00 | 0.00 | 0.00 | 47 | 1018.2 |
| 20260503010141 | 49 | 62 | 0.0 | 0.9 | 0.00 | 0.00 | 0.00 | 47 | 1018.2 |
| 20260503005656 | 49 | 62 | 0.0 | 0.9 | 0.00 | 0.00 | 0.00 | 46 | 1018.2 |
| 20260503005151 | 49 | 62 | 0.0 | 1.7 | 0.00 | 0.00 | 0.00 | 46 | 1018.2 |
| 20260503004645 | 50 | 62 | 0.9 | 1.7 | 0.00 | 0.00 | 0.00 | 46 | 1018.2 |
| 20260503004141 | 50 | 62 | 0.0 | 2.6 | 0.00 | 0.00 | 0.00 | 45 | 1018.1 |
| 20260503003637 | 50 | 62 | 0.9 | 2.6 | 0.00 | 0.00 | 0.00 | 44 | 1018.1 |
| 20260503003134 | 50 | 62 | 0.9 | 2.6 | 0.00 | 0.00 | 0.00 | 44 | 1018.1 |
| 20260503002631 | 50 | 63 | 0.9 | 3.5 | 0.00 | 0.00 | 0.00 | 44 | 1018.1 |
| 20260503002146 | 50 | 64 | 0.9 | 3.5 | 0.00 | 0.00 | 0.00 | 44 | 1018.0 |
| 20260503001641 | 51 | 8 | 0.9 | 3.5 | 0.00 | 0.00 | 0.00 | 44 | 1018.0 |
| 20260503001136 | 51 | 8 | 0.0 | 6.1 | 0.00 | 0.00 | 0.00 | 43 | 1017.8 |
| 20260503000633 | 51 | 32 | 1.7 | 5.2 | 0.00 | 0.00 | 0.00 | 43 | 1017.8 |
| 20260503000130 | 51 | 40 | 1.7 | 5.2 | 0.00 | 0.00 | 0.00 | 43 | 1017.8 |
| 20260502235645 | 51 | 52 | 2.6 | 5.2 | 0.00 | 0.00 | 0.00 | 43 | 1017.8 |
| 20260502235203 | 51 | 2 | 1.7 | 3.5 | 0.00 | 0.00 | 0.00 | 43 | 1017.7 |
| 20260502234636 | 51 | 11 | 0.9 | 5.2 | 0.00 | 0.00 | 0.00 | 42 | 1017.7 |
| 20260502234131 | 51 | 8 | 2.6 | 5.2 | 0.00 | 0.00 | 0.00 | 43 | 1017.8 |
| 20260502233707 | 51 | 27 | 1.7 | 5.2 | 0.00 | 0.00 | 0.00 | 42 | 1017.7 |
| 20260502233143 | 51 | 29 | 0.9 | 3.5 | 0.00 | 0.00 | 0.00 | 42 | 1017.7 |
| 20260502232639 | 52 | 29 | 1.7 | 4.3 | 0.00 | 0.00 | 0.00 | 42 | 1017.7 |
| 20260502232156 | 52 | 52 | 0.9 | 4.3 | 0.00 | 0.00 | 0.00 | 43 | 1017.8 |
| 20260502231630 | 52 | 23 | 0.9 | 4.3 | 0.00 | 0.00 | 0.00 | 43 | 1017.8 |
| 20260502231204 | 52 | 46 | 0.0 | 7.0 | 0.00 | 0.00 | 0.00 | 43 | 1017.9 |
| 20260502230639 | 52 | 45 | 1.7 | 7.8 | 0.00 | 0.00 | 0.00 | 42 | 1017.9 |
| 20260502230135 | 53 | 10 | 2.6 | 7.0 | 0.00 | 0.00 | 0.00 | 42 | 1017.8 |
| 20260502225630 | 52 | 47 | 1.7 | 8.7 | 0.00 | 0.00 | 0.00 | 43 | 1017.8 |
| 20260502225146 | 52 | 34 | 3.5 | 8.7 | 0.00 | 0.00 | 0.00 | 43 | 1017.8 |
| 20260502224659 | 52 | 35 | 1.7 | 4.3 | 0.00 | 0.00 | 0.00 | 43 | 1017.7 |
| 20260502224133 | 52 | 46 | 0.9 | 5.2 | 0.00 | 0.00 | 0.00 | 45 | 1017.7 |
| 20260502223629 | 52 | 44 | 1.7 | 7.0 | 0.00 | 0.00 | 0.00 | 42 | 1017.8 |
| 20260502223144 | 52 | 31 | 2.6 | 7.0 | 0.00 | 0.00 | 0.00 | 43 | 1017.8 |
| 20260502222701 | 52 | 320 | 0.9 | 2.6 | 0.00 | 0.00 | 0.00 | 44 | 1017.7 |
| 20260502222155 | 52 | 48 | 0.0 | 7.0 | 0.00 | 0.00 | 0.00 | 44 | 1017.8 |
| 20260502221630 | 52 | 47 | 1.7 | 7.0 | 0.00 | 0.00 | 0.00 | 43 | 1017.7 |
| 20260502221208 | 52 | 51 | 2.6 | 4.3 | 0.00 | 0.00 | 0.00 | 43 | 1017.7 |
| 20260502220703 | 52 | 46 | 0.9 | 3.5 | 0.00 | 0.00 | 0.00 | 43 | 1017.7 |
| 20260502220136 | 52 | 12 | 1.7 | 4.3 | 0.00 | 0.00 | 0.00 | 42 | 1017.7 |
| 20260502215651 | 52 | 351 | 1.7 | 6.1 | 0.00 | 0.00 | 0.00 | 42 | 1017.8 |
| 20260502215146 | 52 | 45 | 2.6 | 6.1 | 0.00 | 0.00 | 0.00 | 42 | 1017.7 |
| 20260502214641 | 53 | 40 | 0.9 | 3.5 | 0.00 | 0.00 | 0.00 | 42 | 1017.7 |
| 20260502214137 | 53 | 42 | 1.7 | 4.3 | 0.00 | 0.00 | 0.00 | 41 | 1017.7 |
| 20260502213633 | 53 | 70 | 1.7 | 7.8 | 0.00 | 0.00 | 0.00 | 41 | 1017.7 |
| 20260502213146 | 54 | 27 | 2.6 | 9.6 | 0.00 | 0.00 | 0.00 | 43 | 1017.6 |
| 20260502212701 | 54 | 2 | 3.5 | 9.6 | 0.00 | 0.00 | 0.00 | 41 | 1017.6 |
| 20260502212136 | 54 | 54 | 1.7 | 6.1 | 0.00 | 0.00 | 0.00 | 44 | 1017.5 |
| 20260502211630 | 54 | 40 | 2.6 | 8.7 | 0.00 | 0.00 | 0.00 | 41 | 1017.5 |
| 20260502211147 | 54 | 51 | 5.2 | 8.7 | 0.00 | 0.00 | 0.00 | 41 | 1017.4 |
| 20260502210642 | 53 | 42 | 2.6 | 8.7 | 0.00 | 0.00 | 0.00 | 42 | 1017.4 |
| 20260502210138 | 53 | 47 | 2.6 | 7.8 | 0.00 | 0.00 | 0.00 | 42 | 1017.5 |
| 20260502205632 | 54 | 42 | 3.5 | 9.6 | 0.00 | 0.00 | 0.00 | 40 | 1017.5 |
| 20260502205146 | 54 | 35 | 1.7 | 7.8 | 0.00 | 0.00 | 0.00 | 43 | 1017.5 |
| 20260502204641 | 54 | 55 | 2.6 | 8.7 | 0.00 | 0.00 | 0.00 | 44 | 1017.5 |
| 20260502204153 | 53 | 31 | 0.9 | 7.0 | 0.00 | 0.00 | 0.00 | 46 | 1017.5 |
| 20260502203648 | 53 | 19 | 1.7 | 7.0 | 0.00 | 0.00 | 0.00 | 43 | 1017.6 |
| 20260502203144 | 54 | 25 | 0.9 | 7.8 | 0.00 | 0.00 | 0.00 | 43 | 1017.6 |
| 20260502202638 | 54 | 347 | 2.6 | 10.4 | 0.00 | 0.00 | 0.00 | 44 | 1017.6 |
| 20260502202134 | 54 | 42 | 3.5 | 10.4 | 0.00 | 0.00 | 0.00 | 44 | 1017.5 |
| 20260502201649 | 54 | 48 | 1.7 | 7.0 | 0.00 | 0.00 | 0.00 | 44 | 1017.6 |
| 20260502201144 | 54 | 48 | 1.7 | 8.7 | 0.00 | 0.00 | 0.00 | 44 | 1017.6 |
| 20260502200640 | 54 | 44 | 2.6 | 7.8 | 0.00 | 0.00 | 0.00 | 44 | 1017.7 |